createdAt,value
2023-05-16T00:01:53.321Z,6.60
2023-05-16T00:06:56.273Z,7.21
2023-05-16T00:11:59.967Z,7.44
2023-05-16T00:17:12.148Z,7.29
2023-05-16T00:22:16.408Z,7.81
2023-05-16T00:27:19.334Z,8.23
2023-05-16T00:32:22.431Z,8.07
2023-05-16T00:37:25.509Z,8.14
2023-05-16T00:42:30.352Z,8.31
2023-05-16T00:47:34.105Z,8.31
2023-05-16T00:52:37.201Z,8.15
2023-05-16T00:57:40.311Z,8.10
2023-05-16T01:02:43.863Z,8.02
2023-05-16T01:07:47.426Z,8.07
2023-05-16T01:13:07.628Z,8.19
2023-05-16T01:18:16.520Z,8.30
2023-05-16T01:23:52.331Z,8.74
2023-05-16T01:28:55.852Z,8.99
2023-05-16T01:33:58.746Z,9.14
2023-05-16T01:39:04.435Z,9.31
2023-05-16T01:44:12.296Z,9.46
2023-05-16T01:49:30.174Z,9.79
2023-05-16T01:54:34.124Z,10.12
2023-05-16T01:59:38.032Z,10.19
2023-05-16T02:04:40.997Z,10.07
2023-05-16T02:09:43.837Z,9.89
2023-05-16T02:14:47.778Z,10.19
2023-05-16T02:19:50.876Z,10.86
2023-05-16T02:24:53.790Z,11.44
2023-05-16T02:29:56.595Z,11.65
2023-05-16T02:34:59.537Z,11.62
2023-05-16T02:40:06.183Z,11.85
2023-05-16T02:45:09.755Z,12.01
2023-05-16T02:50:12.831Z,12.20
2023-05-16T02:55:22.264Z,12.79
2023-05-16T03:00:25.834Z,12.46
2023-05-16T03:05:28.986Z,12.29
2023-05-16T03:10:32.039Z,12.58
2023-05-16T03:15:34.825Z,12.93
2023-05-16T03:20:38.961Z,12.91
2023-05-16T03:25:43.589Z,12.84
2023-05-16T03:30:47.429Z,12.53
2023-05-16T03:35:51.229Z,12.32
2023-05-16T03:40:54.046Z,12.35
2023-05-16T03:45:57.302Z,11.96
2023-05-16T03:51:00.201Z,11.51
2023-05-16T03:56:03.154Z,11.24
2023-05-16T04:01:05.940Z,11.48
2023-05-16T04:06:09.255Z,11.83
2023-05-16T04:11:12.613Z,12.30
2023-05-16T04:16:15.518Z,12.51
2023-05-16T04:21:18.786Z,12.26
2023-05-16T04:26:22.969Z,12.20
2023-05-16T04:31:26.888Z,12.20
2023-05-16T04:36:30.597Z,12.50
2023-05-16T04:41:34.209Z,12.98
2023-05-16T04:46:37.236Z,13.50
2023-05-16T04:51:40.067Z,13.47
2023-05-16T04:56:43.011Z,12.94
2023-05-16T05:01:45.864Z,13.53
2023-05-16T05:06:49.269Z,14.17
2023-05-16T05:11:52.837Z,14.32
2023-05-16T05:16:55.878Z,14.17
2023-05-16T05:21:58.888Z,14.17
2023-05-16T05:27:01.828Z,14.30
2023-05-16T05:32:05.674Z,14.32
2023-05-16T05:37:08.783Z,14.39
2023-05-16T05:42:12.509Z,14.88
2023-05-16T05:47:16.014Z,14.55
2023-05-16T05:52:18.953Z,14.28
2023-05-16T05:57:22.036Z,14.42
2023-05-16T06:02:25.153Z,14.81
2023-05-16T06:07:28.125Z,15.14
2023-05-16T06:12:32.452Z,15.85
2023-05-16T06:17:35.424Z,16.07
2023-05-16T06:22:38.360Z,16.25
2023-05-16T06:27:41.225Z,16.78
2023-05-16T06:32:44.188Z,16.94
2023-05-16T06:37:47.056Z,16.45
2023-05-16T06:42:49.998Z,16.38
2023-05-16T06:47:57.213Z,15.98
2023-05-16T06:53:02.469Z,15.84
2023-05-16T06:58:05.356Z,15.67
2023-05-16T07:03:08.480Z,15.58
2023-05-16T07:08:12.730Z,16.34
2023-05-16T07:13:16.211Z,16.72
2023-05-16T07:18:19.176Z,16.01
2023-05-16T07:23:22.746Z,15.41
2023-05-16T07:28:25.710Z,15.27
2023-05-16T07:33:28.649Z,14.92
2023-05-16T07:38:31.904Z,14.97
2023-05-16T07:43:37.389Z,15.11
2023-05-16T07:48:40.156Z,15.13
2023-05-16T07:53:43.023Z,15.67
2023-05-16T07:58:46.357Z,15.94
2023-05-16T08:03:49.472Z,15.78
2023-05-16T08:08:52.561Z,16.11
2023-05-16T08:13:55.463Z,16.13
2023-05-16T08:18:58.652Z,16.22
2023-05-16T08:24:01.552Z,16.46
2023-05-16T08:29:05.366Z,16.45
2023-05-16T08:34:09.829Z,16.26
2023-05-16T08:39:13.866Z,16.16
2023-05-16T08:44:22.375Z,16.02
2023-05-16T08:49:28.672Z,16.37
2023-05-16T08:54:31.675Z,16.25
2023-05-16T08:59:35.509Z,16.13
2023-05-16T09:04:39.390Z,16.04
2023-05-16T09:09:43.169Z,15.94
2023-05-16T09:14:47.837Z,15.91
2023-05-16T09:19:53.427Z,16.83
2023-05-16T09:24:56.437Z,17.39
2023-05-16T09:29:59.949Z,16.69
2023-05-16T09:35:02.828Z,17.22
2023-05-16T09:40:07.683Z,17.15
2023-05-16T09:45:14.648Z,17.47
2023-05-16T09:50:17.900Z,17.21
2023-05-16T09:55:20.820Z,16.96
2023-05-16T10:00:30.544Z,16.77
2023-05-16T10:05:35.073Z,16.32
2023-05-16T10:10:39.171Z,16.26
2023-05-16T10:15:42.561Z,16.52
2023-05-16T10:20:49.730Z,16.71
2023-05-16T10:25:52.871Z,16.66
2023-05-16T10:30:56.477Z,16.42
2023-05-16T10:35:59.682Z,15.48
2023-05-16T10:41:03.057Z,15.01
2023-05-16T10:46:10.994Z,15.02
2023-05-16T10:51:40.350Z,15.03
2023-05-16T10:56:43.887Z,14.68
2023-05-16T11:01:54.245Z,14.30
2023-05-16T11:06:58.874Z,14.05
2023-05-16T11:12:04.039Z,13.80
2023-05-16T11:17:15.596Z,12.94
2023-05-16T11:22:29.690Z,12.25
2023-05-16T11:27:40.196Z,12.28
2023-05-16T11:32:44.975Z,12.01
2023-05-16T11:37:48.275Z,11.58
2023-05-16T11:42:51.914Z,11.18
2023-05-16T11:47:55.250Z,10.94
2023-05-16T11:52:58.380Z,10.81
2023-05-16T11:58:02.469Z,10.69
2023-05-16T12:03:06.612Z,10.41
2023-05-16T12:08:11.406Z,9.81
2023-05-16T12:13:14.734Z,9.29
2023-05-16T12:18:17.896Z,8.80
2023-05-16T12:23:20.890Z,8.58
2023-05-16T12:28:23.995Z,8.48
2023-05-16T12:33:26.930Z,7.95
2023-05-16T12:38:29.949Z,7.40
2023-05-16T12:43:32.981Z,6.95
2023-05-16T12:48:36.169Z,5.88
2023-05-16T12:53:57.555Z,4.86
2023-05-16T12:59:14.917Z,4.86
2023-05-16T13:04:20.812Z,4.23
2023-05-16T13:09:24.228Z,4.06
2023-05-16T13:14:27.502Z,4.01
2023-05-16T13:19:32.163Z,3.78
2023-05-16T13:24:35.206Z,3.49
2023-05-16T13:29:38.175Z,3.44
2023-05-16T13:34:41.142Z,3.18
2023-05-16T13:39:44.057Z,2.80
2023-05-16T13:44:47.572Z,2.74
2023-05-16T13:49:51.263Z,2.74
2023-05-16T13:54:54.262Z,2.55
2023-05-16T14:00:24.989Z,3.67
2023-05-16T14:05:25.185Z,4.24
2023-05-16T14:10:28.902Z,4.24
2023-05-16T14:15:32.556Z,4.14
2023-05-16T14:20:36.440Z,4.02
2023-05-16T14:25:39.805Z,3.75
2023-05-16T14:30:43.020Z,3.45
2023-05-16T14:35:48.235Z,3.19
2023-05-16T14:40:56.667Z,2.97
2023-05-16T14:45:59.673Z,2.71
2023-05-16T14:51:04.991Z,2.39
2023-05-16T14:56:07.752Z,2.13
2023-05-16T15:01:11.222Z,1.97
2023-05-16T15:06:14.167Z,1.84
2023-05-16T15:11:17.252Z,1.76
2023-05-16T15:16:20.297Z,1.73
2023-05-16T15:21:24.117Z,1.80
2023-05-16T15:26:27.177Z,2.21
2023-05-16T15:31:32.455Z,2.43
2023-05-16T15:36:35.508Z,2.37
2023-05-16T15:42:05.387Z,2.28
2023-05-16T15:47:04.219Z,2.24
2023-05-16T15:52:07.230Z,2.56
2023-05-16T15:57:10.216Z,2.67
2023-05-16T16:02:13.420Z,2.72
2023-05-16T16:07:16.610Z,2.76
2023-05-16T16:12:19.707Z,2.77
2023-05-16T16:17:22.734Z,2.85
2023-05-16T16:22:25.652Z,2.92
2023-05-16T16:27:28.588Z,2.97
2023-05-16T16:32:31.635Z,2.97
2023-05-16T16:37:35.201Z,2.95
2023-05-16T16:42:39.085Z,2.92
2023-05-16T16:47:42.289Z,2.93
2023-05-16T16:52:45.222Z,3.04
2023-05-16T16:57:48.153Z,3.11
2023-05-16T17:02:51.211Z,3.08
2023-05-16T17:07:54.332Z,3.07
2023-05-16T17:13:03.256Z,3.03
2023-05-16T17:18:09.219Z,2.99
2023-05-16T17:23:12.277Z,2.88
2023-05-16T17:28:15.404Z,2.48
2023-05-16T17:33:19.737Z,2.12
2023-05-16T17:38:22.627Z,1.96
2023-05-16T17:43:26.082Z,1.90
2023-05-16T17:48:29.110Z,1.89
2023-05-16T17:53:32.020Z,1.95
2023-05-16T17:58:35.069Z,1.99
2023-05-16T18:03:38.192Z,2.08
2023-05-16T18:08:41.170Z,2.10
2023-05-16T18:13:44.561Z,2.07
2023-05-16T18:18:47.786Z,2.06
2023-05-16T18:23:50.707Z,2.04
2023-05-16T18:28:53.657Z,2.00
2023-05-16T18:33:56.630Z,2.01
2023-05-16T18:38:59.576Z,2.03
2023-05-16T18:44:02.578Z,2.10
2023-05-16T18:49:05.867Z,2.06
2023-05-16T18:54:08.825Z,2.02
2023-05-16T18:59:11.695Z,1.97
2023-05-16T19:04:14.715Z,1.94
2023-05-16T19:09:17.630Z,1.93
2023-05-16T19:14:21.000Z,1.85
2023-05-16T19:19:24.088Z,1.82
2023-05-16T19:24:27.334Z,1.74
2023-05-16T19:29:30.415Z,1.74
2023-05-16T19:34:33.619Z,1.75
2023-05-16T19:39:36.603Z,1.71
2023-05-16T19:44:39.533Z,1.72
2023-05-16T19:49:42.440Z,1.71
2023-05-16T19:54:45.479Z,1.73
2023-05-16T19:59:48.368Z,1.73
2023-05-16T20:04:51.424Z,1.76
2023-05-16T20:09:54.336Z,1.71
2023-05-16T20:14:57.358Z,1.76
2023-05-16T20:20:00.606Z,1.76
2023-05-16T20:25:03.874Z,1.76
2023-05-16T20:30:07.993Z,1.73
2023-05-16T20:35:11.706Z,1.69
2023-05-16T20:40:14.578Z,1.69
2023-05-16T20:45:17.475Z,1.71
2023-05-16T20:50:20.426Z,1.70
2023-05-16T20:55:23.858Z,1.78
2023-05-16T21:00:27.012Z,1.67
2023-05-16T21:05:29.995Z,1.59
2023-05-16T21:10:33.047Z,1.50
2023-05-16T21:15:36.027Z,1.48
2023-05-16T21:20:38.966Z,1.45
2023-05-16T21:25:41.913Z,1.47
2023-05-16T21:30:44.809Z,1.49
2023-05-16T21:35:47.855Z,1.55
2023-05-16T21:40:50.772Z,1.56
2023-05-16T21:45:53.886Z,1.57
2023-05-16T21:50:56.794Z,1.58
2023-05-16T21:56:00.215Z,1.57
2023-05-16T22:01:03.160Z,1.62
2023-05-16T22:06:06.604Z,1.62
2023-05-16T22:11:10.699Z,1.60
2023-05-16T22:16:13.655Z,1.59
2023-05-16T22:21:20.558Z,1.55
2023-05-16T22:26:23.531Z,1.57
2023-05-16T22:31:26.723Z,1.57
2023-05-16T22:36:29.814Z,1.58
2023-05-16T22:41:32.749Z,1.56
2023-05-16T22:46:35.764Z,1.54
2023-05-16T22:51:40.789Z,1.54
2023-05-16T22:56:44.030Z,1.49
2023-05-16T23:01:47.017Z,1.49
2023-05-16T23:06:49.977Z,1.54
2023-05-16T23:11:52.958Z,1.56
2023-05-16T23:16:56.007Z,1.63
2023-05-16T23:21:58.847Z,1.68
2023-05-16T23:27:01.754Z,1.69
2023-05-16T23:32:05.153Z,1.81
2023-05-16T23:37:08.081Z,1.80
2023-05-16T23:42:11.041Z,1.88
2023-05-16T23:47:13.962Z,1.96
2023-05-16T23:52:16.845Z,1.97
2023-05-16T23:57:19.745Z,2.01
